Time;durP1;ratioP1;P1;durP2;ratioP2;P2;SDS_P1;SDS_P2;PMS_P1;PMS_P2;Temp;Humidity;BMP_temperature;BMP_pressure;BME280_temperature;BME280_humidity;BME280_pressure;Samples;Min_cycle;Max_cycle;Signal;HPM_P1;HPM_P2
2022/07/26 00:01:27;;;;;;;8.40;5.50;;;;;;;22.08;51.12;99824.07;105709;1276;22554;-83
2022/07/26 00:03:58;;;;;;;6.10;5.50;;;;;;;22.06;51.19;99820.99;105927;1276;22563;-79
2022/07/26 00:06:26;;;;;;;6.20;5.10;;;;;;;22.04;51.35;99817.00;105715;1276;26542;-79
2022/07/26 00:08:53;;;;;;;6.00;5.30;;;;;;;22.00;51.37;99813.30;105695;1276;22621;-78
2022/07/26 00:11:20;;;;;;;5.80;5.20;;;;;;;21.98;51.38;99803.75;105586;1281;24194;-77
2022/07/26 00:13:47;;;;;;;6.80;5.60;;;;;;;21.94;51.57;99797.01;105485;1281;22560;-76
2022/07/26 00:16:15;;;;;;;7.30;5.60;;;;;;;21.89;51.62;99790.19;105398;1284;22679;-75
2022/07/26 00:18:42;;;;;;;6.40;5.70;;;;;;;21.85;51.73;99784.38;105576;1281;26492;-76
2022/07/26 00:21:09;;;;;;;5.50;5.00;;;;;;;21.80;51.88;99783.26;105746;1281;22606;-78
2022/07/26 00:23:38;;;;;;;6.60;4.70;;;;;;;21.73;51.89;99781.71;105655;1281;25261;-79
2022/07/26 00:26:05;;;;;;;6.00;4.50;;;;;;;21.72;52.07;99779.45;105672;1281;22579;-79
2022/07/26 00:28:32;;;;;;;5.70;4.30;;;;;;;21.72;52.21;99781.06;105502;1281;25251;-83
2022/07/26 00:30:59;;;;;;;4.70;3.80;;;;;;;21.69;51.97;99783.41;105998;1276;25359;-77
2022/07/26 00:33:26;;;;;;;5.90;4.40;;;;;;;21.69;52.30;99785.37;106114;1275;23058;-80
2022/07/26 00:35:53;;;;;;;7.20;4.80;;;;;;;21.68;52.24;99781.34;105973;1275;22589;-76
2022/07/26 00:38:20;;;;;;;11.20;4.40;;;;;;;21.63;52.29;99775.37;105735;1276;22531;-80
2022/07/26 00:40:47;;;;;;;5.80;5.00;;;;;;;21.59;52.32;99773.99;106096;1274;25252;-76
2022/07/26 00:43:14;;;;;;;5.00;4.50;;;;;;;21.51;52.41;99776.31;105804;1274;24228;-78
2022/07/26 00:45:41;;;;;;;5.20;4.20;;;;;;;21.45;52.69;99776.33;105760;1275;22757;-79
2022/07/26 00:48:09;;;;;;;7.20;4.60;;;;;;;21.41;52.78;99779.61;105919;1276;25572;-78
2022/07/26 00:50:36;;;;;;;6.60;4.40;;;;;;;21.37;53.01;99774.52;105871;1274;25368;-78
2022/07/26 00:53:03;;;;;;;5.30;4.30;;;;;;;21.32;53.14;99763.54;105759;1274;22724;-78
2022/07/26 00:55:31;;;;;;;6.80;4.50;;;;;;;21.31;53.21;99763.61;105838;1275;22551;-81
2022/07/26 00:58:00;;;;;;;5.80;4.40;;;;;;;21.27;53.35;99764.02;105760;1275;22540;-79
2022/07/26 01:00:28;;;;;;;7.00;4.70;;;;;;;21.23;53.46;99761.99;105936;1274;25248;-79
2022/07/26 01:02:55;;;;;;;5.50;4.20;;;;;;;21.20;53.65;99762.33;105738;1275;25228;-78
2022/07/26 01:05:23;;;;;;;6.10;4.40;;;;;;;21.18;53.59;99760.14;105740;1275;25388;-76
2022/07/26 01:07:51;;;;;;;9.30;4.30;;;;;;;21.15;53.72;99762.65;105795;1277;24278;-78
2022/07/26 01:10:19;;;;;;;4.90;4.40;;;;;;;21.13;53.90;99761.71;105681;1275;22573;-75
2022/07/26 01:12:46;;;;;;;7.40;5.20;;;;;;;21.10;53.92;99762.95;106083;1274;22582;-78
2022/07/26 01:15:13;;;;;;;10.00;4.90;;;;;;;21.08;53.87;99758.84;105199;1282;22589;-78
2022/07/26 01:17:41;;;;;;;6.30;4.90;;;;;;;21.04;53.95;99752.04;105541;1282;22540;-76
2022/07/26 01:20:10;;;;;;;6.70;5.30;;;;;;;21.00;54.16;99747.10;105445;1282;22547;-78
2022/07/26 01:22:37;;;;;;;5.50;4.50;;;;;;;20.97;54.24;99741.61;105419;1282;25518;-80
2022/07/26 01:25:05;;;;;;;6.10;4.80;;;;;;;20.93;54.32;99737.56;105428;1282;22600;-79
2022/07/26 01:27:37;;;;;;;7.20;4.50;;;;;;;20.91;54.47;99733.50;105267;1282;22535;-80
2022/07/26 01:30:09;;;;;;;5.20;4.70;;;;;;;20.90;54.45;99738.20;105339;1282;22579;-81
2022/07/26 01:32:37;;;;;;;9.30;4.80;;;;;;;20.89;54.74;99739.38;105292;1279;22940;-77
2022/07/26 01:35:06;;;;;;;5.20;4.40;;;;;;;20.87;54.67;99742.33;105960;1277;24236;-78
2022/07/26 01:37:33;;;;;;;5.60;4.70;;;;;;;20.87;54.73;99745.77;106035;1276;22525;-77
2022/07/26 01:40:01;;;;;;;5.50;5.10;;;;;;;20.88;54.81;99750.14;105836;1276;25248;-79
2022/07/26 01:42:28;;;;;;;5.10;4.60;;;;;;;20.88;54.79;99749.48;105859;1278;24228;-76
2022/07/26 01:44:55;;;;;;;8.50;4.90;;;;;;;20.86;54.79;99749.19;105724;1276;22540;-80
2022/07/26 01:47:22;;;;;;;5.20;4.70;;;;;;;20.84;54.84;99751.33;106011;1276;24201;-76
2022/07/26 01:49:49;;;;;;;5.20;4.70;;;;;;;20.78;54.90;99740.92;105711;1277;22711;-78
2022/07/26 01:52:16;;;;;;;6.00;5.20;;;;;;;20.78;55.00;99749.17;105448;1278;25381;-78
2022/07/26 01:54:43;;;;;;;7.10;4.80;;;;;;;20.74;55.03;99753.01;106250;1276;25251;-79
2022/07/26 01:57:10;;;;;;;7.30;4.90;;;;;;;20.70;55.21;99752.73;105577;1277;25244;-78
2022/07/26 01:59:37;;;;;;;8.70;5.00;;;;;;;20.70;55.32;99746.10;105406;1277;22858;-80
2022/07/26 02:02:04;;;;;;;5.80;4.60;;;;;;;20.68;55.23;99743.55;105753;1276;22557;-79
2022/07/26 02:07:17;;;;;;;8.50;5.10;;;;;;;20.62;55.51;99740.70;106111;1276;22706;-79
2022/07/26 02:09:44;;;;;;;5.20;4.60;;;;;;;20.59;55.59;99733.15;105687;1276;25246;-80
2022/07/26 02:12:13;;;;;;;10.20;4.70;;;;;;;20.57;55.69;99726.52;105684;1279;25292;-80
2022/07/26 02:14:40;;;;;;;5.00;4.50;;;;;;;20.54;55.65;99723.23;105844;1276;22580;-80
2022/07/26 02:17:10;;;;;;;8.20;5.20;;;;;;;20.52;55.73;99721.40;105924;1276;22588;-78
2022/07/26 02:19:37;;;;;;;6.10;4.40;;;;;;;20.50;55.68;99720.99;105810;1277;22632;-80
2022/07/26 02:22:05;;;;;;;6.20;4.20;;;;;;;20.49;55.74;99716.76;105833;1278;22548;-77
2022/07/26 02:24:32;;;;;;;6.30;4.70;;;;;;;20.50;55.87;99717.92;105719;1278;23392;-79
2022/07/26 02:27:00;;;;;;;10.20;4.40;;;;;;;20.49;55.87;99711.77;105837;1276;22622;-80
2022/07/26 02:29:27;;;;;;;4.70;4.30;;;;;;;20.49;55.81;99705.12;105681;1277;23198;-75
2022/07/26 02:31:55;;;;;;;6.30;4.30;;;;;;;20.48;55.80;99703.92;105851;1276;25256;-76
2022/07/26 02:34:22;;;;;;;5.10;4.60;;;;;;;20.47;55.78;99702.77;105899;1276;22481;-75
2022/07/26 02:36:50;;;;;;;7.40;5.10;;;;;;;20.45;55.79;99706.30;105682;1277;24258;-77
2022/07/26 02:39:17;;;;;;;6.20;4.80;;;;;;;20.43;55.83;99707.67;105860;1276;22598;-78
2022/07/26 02:41:44;;;;;;;6.50;4.60;;;;;;;20.41;55.92;99704.00;105707;1276;22557;-81
2022/07/26 02:44:11;;;;;;;4.70;4.30;;;;;;;20.36;56.00;99704.65;106052;1276;26550;-80
2022/07/26 02:46:38;;;;;;;6.10;4.40;;;;;;;20.35;55.98;99701.16;106063;1276;24298;-80
2022/07/26 02:49:05;;;;;;;4.80;4.40;;;;;;;20.35;56.09;99697.92;105943;1276;22861;-76
2022/07/26 02:51:32;;;;;;;6.20;4.70;;;;;;;20.36;56.12;99695.73;105923;1279;22539;-77
2022/07/26 02:53:59;;;;;;;7.80;4.70;;;;;;;20.36;56.13;99691.08;106211;1276;22697;-81
2022/07/26 02:56:26;;;;;;;5.50;4.90;;;;;;;20.32;56.12;99681.55;106129;1275;24273;-75
2022/07/26 02:58:53;;;;;;;7.10;5.10;;;;;;;20.32;56.27;99672.95;105934;1276;24227;-80
2022/07/26 03:01:21;;;;;;;6.40;4.70;;;;;;;20.27;56.41;99667.29;105891;1276;25262;-79
2022/07/26 03:03:47;;;;;;;7.40;4.70;;;;;;;20.25;56.43;99666.34;105927;1276;22713;-81
2022/07/26 03:06:18;;;;;;;6.80;4.80;;;;;;;20.18;56.56;99659.65;106054;1276;22481;-78
2022/07/26 03:08:46;;;;;;;6.10;5.50;;;;;;;20.17;56.65;99667.73;106110;1276;24071;-80
2022/07/26 03:11:13;;;;;;;5.70;4.70;;;;;;;20.15;56.65;99664.84;105939;1276;22551;-80
2022/07/26 03:13:40;;;;;;;6.60;4.90;;;;;;;20.14;56.80;99663.84;106000;1276;22486;-76
2022/07/26 03:16:07;;;;;;;5.70;5.20;;;;;;;20.12;56.95;99668.23;105961;1276;24286;-80
2022/07/26 03:18:34;;;;;;;6.10;5.50;;;;;;;20.11;57.01;99671.86;106089;1276;23188;-77
2022/07/26 03:21:02;;;;;;;5.40;4.30;;;;;;;20.13;56.97;99671.19;105999;1276;26056;-79
2022/07/26 03:23:33;;;;;;;8.40;4.90;;;;;;;20.15;56.98;99672.83;105911;1278;25250;-76
2022/07/26 03:26:03;;;;;;;5.40;4.70;;;;;;;20.19;56.93;99674.27;105807;1278;22670;-77
2022/07/26 03:28:32;;;;;;;5.30;4.70;;;;;;;20.18;56.90;99675.70;106021;1276;25508;-79
2022/07/26 03:30:59;;;;;;;5.50;4.80;;;;;;;20.19;56.91;99677.29;105792;1276;24805;-79
2022/07/26 03:33:27;;;;;;;6.40;5.00;;;;;;;20.20;56.95;99681.48;105750;1276;26604;-79
2022/07/26 03:35:55;;;;;;;8.60;4.70;;;;;;;20.23;56.94;99686.30;105963;1279;23379;-79
2022/07/26 03:38:22;;;;;;;5.50;4.80;;;;;;;20.25;56.91;99683.71;106002;1276;22545;-79
2022/07/26 03:40:49;;;;;;;7.00;5.30;;;;;;;20.27;57.00;99681.60;105880;1276;22534;-82
2022/07/26 03:43:16;;;;;;;6.80;5.20;;;;;;;20.28;56.89;99676.00;105883;1278;22761;-80
2022/07/26 03:45:49;;;;;;;5.70;5.00;;;;;;;20.30;56.94;99669.11;106274;1276;25332;-78
2022/07/26 03:48:15;;;;;;;7.10;5.20;;;;;;;20.25;56.89;99661.33;106293;1276;24275;-77
2022/07/26 03:50:42;;;;;;;8.30;5.70;;;;;;;20.26;56.98;99656.81;106436;1276;22481;-79
2022/07/26 03:53:09;;;;;;;7.10;5.00;;;;;;;20.26;57.02;99652.55;106201;1279;22879;-80
2022/07/26 03:58:22;;;;;;;8.00;5.80;;;;;;;20.29;57.18;99645.39;105988;1276;22633;-78
2022/07/26 04:00:48;;;;;;;6.80;5.50;;;;;;;20.32;57.08;99652.04;106043;1279;24232;-76
2022/07/26 04:03:15;;;;;;;7.10;5.20;;;;;;;20.31;57.03;99650.28;106131;1279;26550;-78
2022/07/26 04:05:42;;;;;;;7.40;5.30;;;;;;;20.32;57.07;99653.80;105753;1279;22580;-80
2022/07/26 04:08:15;;;;;;;5.90;5.30;;;;;;;20.31;56.95;99645.83;105631;1281;25209;-78
2022/07/26 04:10:47;;;;;;;8.30;5.10;;;;;;;20.34;57.08;99635.59;105328;1279;24390;-75
2022/07/26 04:13:14;;;;;;;5.60;4.80;;;;;;;20.39;57.05;99633.15;105304;1282;22532;-79
2022/07/26 04:15:40;;;;;;;5.80;5.20;;;;;;;20.40;56.98;99637.04;105575;1279;24316;-78
2022/07/26 04:18:07;;;;;;;7.60;5.20;;;;;;;20.43;57.01;99638.27;105733;1280;25237;-78
2022/07/26 04:20:34;;;;;;;9.70;5.10;;;;;;;20.47;57.04;99634.80;105416;1279;23300;-77
2022/07/26 04:23:01;;;;;;;7.10;5.10;;;;;;;20.52;57.02;99632.68;105180;1279;22797;-78
2022/07/26 04:25:28;;;;;;;9.20;5.40;;;;;;;20.58;56.84;99629.34;105645;1276;24432;-79
2022/07/26 04:28:07;;;;;;;7.50;5.20;;;;;;;20.62;56.98;99629.95;105887;1277;25233;-76
2022/07/26 04:30:34;;;;;;;5.90;5.00;;;;;;;20.68;56.73;99632.27;106034;1276;24217;-79
2022/07/26 04:33:02;;;;;;;7.30;4.90;;;;;;;20.73;56.75;99632.49;105943;1276;22880;-78
2022/07/26 04:35:29;;;;;;;8.00;4.70;;;;;;;20.77;56.58;99632.54;105782;1276;25240;-81
2022/07/26 04:37:55;;;;;;;8.00;5.10;;;;;;;20.80;56.34;99632.18;106141;1274;25516;-80
2022/07/26 04:40:23;;;;;;;6.40;4.90;;;;;;;20.83;56.29;99626.29;106065;1276;22866;-77
2022/07/26 04:42:51;;;;;;;12.10;5.10;;;;;;;20.86;56.34;99630.91;106121;1278;25314;-78
2022/07/26 04:45:19;;;;;;;7.70;4.80;;;;;;;20.85;56.37;99634.91;105846;1279;25122;-78
2022/07/26 04:47:49;;;;;;;8.60;5.00;;;;;;;20.90;56.34;99641.05;105795;1276;22554;-79
2022/07/26 04:50:18;;;;;;;5.40;4.60;;;;;;;20.95;56.24;99638.61;105925;1276;25245;-78
2022/07/26 04:52:46;;;;;;;5.60;4.50;;;;;;;20.99;56.09;99635.33;105985;1275;22549;-78
2022/07/26 04:55:13;;;;;;;5.70;5.20;;;;;;;21.00;55.84;99624.14;105812;1276;24282;-79
2022/07/26 04:57:40;;;;;;;7.60;4.60;;;;;;;20.99;55.75;99628.35;105726;1276;24257;-80
2022/07/26 05:00:09;;;;;;;7.90;4.80;;;;;;;20.97;55.88;99632.93;105948;1276;24226;-78
2022/07/26 05:02:57;;;;;;;10.10;4.70;;;;;;;21.02;55.98;99636.40;105910;1275;22698;-77
2022/07/26 05:05:27;;;;;;;7.90;4.50;;;;;;;21.06;55.90;99629.89;105897;1276;22623;-79
2022/07/26 05:07:56;;;;;;;4.80;4.30;;;;;;;21.08;55.93;99621.86;106085;1276;22862;-78
2022/07/26 05:10:30;;;;;;;5.70;4.50;;;;;;;21.11;55.85;99624.91;105995;1276;25250;-79
2022/07/26 05:12:57;;;;;;;5.20;4.60;;;;;;;21.15;55.72;99625.70;106007;1276;25325;-78
2022/07/26 05:15:24;;;;;;;6.40;4.50;;;;;;;21.18;55.73;99619.09;105842;1277;22521;-78
2022/07/26 05:18:05;;;;;;;5.70;5.10;;;;;;;21.22;55.72;99616.48;105863;1276;25307;-79
2022/07/26 05:20:35;;;;;;;6.90;4.40;;;;;;;21.29;55.74;99615.46;105897;1277;25358;-79
2022/07/26 05:23:03;;;;;;;7.50;5.10;;;;;;;21.39;55.77;99611.79;105923;1276;22568;-76
2022/07/26 05:25:30;;;;;;;8.80;4.40;;;;;;;21.46;55.63;99604.11;105860;1277;25249;-77
2022/07/26 05:27:57;;;;;;;5.00;4.50;;;;;;;21.55;55.48;99599.59;105824;1276;22874;-78
2022/07/26 05:30:24;;;;;;;7.40;4.40;;;;;;;21.62;55.33;99595.56;105903;1276;25302;-77
2022/07/26 05:32:51;;;;;;;6.20;4.20;;;;;;;21.68;55.17;99591.21;105836;1274;22690;-75
2022/07/26 05:35:19;;;;;;;5.80;4.30;;;;;;;21.74;54.72;99589.23;105831;1274;22551;-78
2022/07/26 05:37:45;;;;;;;6.00;4.30;;;;;;;21.75;54.70;99581.98;106042;1275;22564;-76
2022/07/26 05:40:12;;;;;;;4.70;4.30;;;;;;;21.83;54.53;99576.80;106124;1275;22623;-80
2022/07/26 05:42:39;;;;;;;8.10;4.00;;;;;;;21.87;54.46;99575.59;105862;1275;25255;-74
2022/07/26 05:45:07;;;;;;;10.40;5.10;;;;;;;21.89;54.30;99577.98;106200;1274;22553;-81
2022/07/26 05:47:34;;;;;;;5.30;4.80;;;;;;;21.91;54.53;99574.07;106614;1274;22627;-78
2022/07/26 05:50:02;;;;;;;6.20;3.90;;;;;;;21.98;54.36;99581.11;106298;1275;25244;-76
2022/07/26 05:52:29;;;;;;;4.60;4.10;;;;;;;22.02;54.18;99582.80;106341;1274;26503;-78
2022/07/26 05:54:56;;;;;;;10.90;6.20;;;;;;;22.07;53.98;99585.34;105880;1275;25233;-77
2022/07/26 05:57:23;;;;;;;6.10;4.60;;;;;;;22.11;54.04;99585.64;105808;1275;25646;-79
2022/07/26 05:59:50;;;;;;;4.60;4.20;;;;;;;22.11;53.90;99587.91;105800;1274;22864;-81
2022/07/26 06:02:17;;;;;;;7.00;5.00;;;;;;;22.13;54.05;99591.72;105857;1275;22529;-76
2022/07/26 06:04:44;;;;;;;5.60;4.00;;;;;;;22.19;54.03;99595.12;106151;1274;22882;-80
2022/07/26 06:07:14;;;;;;;4.50;4.00;;;;;;;22.25;53.82;99595.91;105840;1276;23952;-78
2022/07/26 06:09:41;;;;;;;6.40;3.90;;;;;;;22.30;53.58;99593.98;106028;1276;22556;-78
2022/07/26 06:12:08;;;;;;;5.30;3.90;;;;;;;22.30;53.33;99590.94;105490;1281;25573;-80
2022/07/26 06:14:35;;;;;;;4.30;3.60;;;;;;;22.31;53.14;99586.76;105587;1281;26507;-79
2022/07/26 06:17:05;;;;;;;4.70;4.10;;;;;;;22.31;53.53;99583.90;105807;1281;22541;-78
2022/07/26 06:19:33;;;;;;;4.90;4.00;;;;;;;22.38;53.50;99583.39;105595;1281;25236;-78
2022/07/26 06:22:00;;;;;;;7.40;3.70;;;;;;;22.44;53.17;99582.92;105571;1281;22548;-76
2022/07/26 06:24:27;;;;;;;4.20;3.60;;;;;;;22.48;53.02;99579.06;106078;1281;22569;-80
2022/07/26 06:26:56;;;;;;;4.00;3.50;;;;;;;22.54;53.19;99579.96;105304;1281;25377;-77
2022/07/26 06:29:31;;;;;;;6.50;3.90;;;;;;;22.57;52.90;99576.63;105663;1279;25240;-77
2022/07/26 06:31:59;;;;;;;4.20;3.70;;;;;;;22.60;52.80;99574.83;105928;1274;24292;-80
2022/07/26 06:34:26;;;;;;;5.40;3.80;;;;;;;22.69;53.13;99573.52;106560;1274;25412;-77
2022/07/26 06:36:52;;;;;;;8.00;4.40;;;;;;;22.77;53.12;99569.81;105926;1279;22631;-78
2022/07/26 06:39:19;;;;;;;4.40;3.90;;;;;;;22.85;52.84;99565.11;105899;1274;24309;-77
2022/07/26 06:41:47;;;;;;;4.00;3.60;;;;;;;22.93;52.75;99560.09;105526;1276;448790;-79
2022/07/26 06:44:15;;;;;;;4.50;3.50;;;;;;;23.04;52.57;99559.27;106168;1277;22538;-77
2022/07/26 06:46:42;;;;;;;9.40;4.20;;;;;;;23.12;52.28;99561.16;106882;1275;24093;-77
2022/07/26 06:49:11;;;;;;;4.30;3.60;;;;;;;23.21;52.44;99556.33;106874;1279;22597;-76
2022/07/26 06:51:39;;;;;;;6.40;3.40;;;;;;;23.34;52.10;99549.63;106985;1276;23965;-75
2022/07/26 06:54:06;;;;;;;6.80;3.90;;;;;;;23.45;51.90;99550.27;107247;1276;22523;-78
2022/07/26 06:56:34;;;;;;;5.00;3.50;;;;;;;23.54;51.45;99557.73;107059;1274;25303;-77
2022/07/26 06:59:01;;;;;;;9.60;3.70;;;;;;;23.59;51.25;99556.61;106492;1279;22560;-77
2022/07/26 07:01:34;;;;;;;4.40;3.60;;;;;;;23.62;51.01;99555.48;106905;1282;24009;-77
2022/07/26 07:04:21;;;;;;;4.30;3.50;;;;;;;23.68;50.95;99553.05;106136;1279;22738;-78
2022/07/26 07:06:48;;;;;;;9.30;3.10;;;;;;;23.77;51.20;99561.54;106290;1279;22685;-77
2022/07/26 07:09:16;;;;;;;4.30;3.90;;;;;;;23.87;51.21;99570.28;106206;1281;22802;-77
2022/07/26 07:11:45;;;;;;;5.60;3.50;;;;;;;23.96;51.05;99579.95;105387;1284;25253;-78
2022/07/26 07:14:15;;;;;;;6.40;3.20;;;;;;;24.05;50.71;99578.05;105189;1285;25315;-79
2022/07/26 07:16:42;;;;;;;4.70;3.10;;;;;;;24.07;50.49;99568.39;105042;1285;22553;-78
2022/07/26 07:19:09;;;;;;;8.00;4.10;;;;;;;24.10;50.63;99581.80;105745;1281;22588;-80
2022/07/26 07:21:36;;;;;;;5.30;3.50;;;;;;;24.16;50.69;99593.41;105628;1281;22584;-80
2022/07/26 07:24:03;;;;;;;4.10;3.20;;;;;;;24.21;50.38;99591.73;105537;1284;22542;-78
2022/07/26 07:26:31;;;;;;;5.70;3.40;;;;;;;24.25;50.25;99589.45;105522;1282;22698;-80
2022/07/26 07:28:58;;;;;;;7.70;3.40;;;;;;;24.29;50.09;99580.37;105900;1281;22693;-80
2022/07/26 07:31:29;;;;;;;5.50;3.50;;;;;;;24.35;50.39;99574.12;106029;1274;26508;-78
2022/07/26 07:34:17;;;;;;;6.30;3.50;;;;;;;24.49;50.18;99581.67;105957;1277;24284;-74
2022/07/26 07:36:45;;;;;;;5.00;3.40;;;;;;;24.61;50.06;99581.63;105891;1277;24322;-76
2022/07/26 07:39:12;;;;;;;3.40;3.10;;;;;;;24.71;49.52;99570.02;105907;1276;25393;-79
2022/07/26 07:41:47;;;;;;;7.10;3.50;;;;;;;24.80;49.45;99559.55;105814;1275;23691;-79
2022/07/26 07:44:14;;;;;;;3.50;3.00;;;;;;;24.93;49.49;99562.66;105806;1276;25387;-78
2022/07/26 07:46:41;;;;;;;4.20;3.10;;;;;;;25.05;49.10;99563.61;106002;1277;25240;-78
2022/07/26 07:49:09;;;;;;;6.20;3.60;;;;;;;25.12;48.32;99560.16;105969;1277;24350;-78
2022/07/26 07:51:37;;;;;;;3.60;3.00;;;;;;;25.21;47.84;99553.63;105955;1274;22616;-77
2022/07/26 07:54:04;;;;;;;8.00;3.20;;;;;;;25.30;47.52;99560.31;105721;1275;25239;-81
2022/07/26 07:56:33;;;;;;;6.10;3.50;;;;;;;25.34;47.45;99566.31;105630;1276;25315;-80
2022/07/26 07:59:00;;;;;;;3.90;2.70;;;;;;;25.40;47.61;99560.04;105804;1276;22623;-81
2022/07/26 08:01:27;;;;;;;7.40;3.20;;;;;;;25.51;47.90;99555.83;105800;1279;22552;-80
2022/07/26 08:04:07;;;;;;;5.40;3.20;;;;;;;25.62;47.92;99560.36;105804;1276;25334;-80
2022/07/26 08:06:35;;;;;;;4.10;2.80;;;;;;;25.71;47.46;99567.89;105913;1274;22587;-75
2022/07/26 08:09:03;;;;;;;3.60;3.10;;;;;;;25.66;46.88;99572.50;105894;1276;23266;-80
2022/07/26 08:11:32;;;;;;;6.50;3.30;;;;;;;25.57;46.50;99575.38;105931;1275;22705;-81
2022/07/26 08:13:59;;;;;;;3.50;3.20;;;;;;;25.51;46.78;99579.61;106254;1275;22543;-80
2022/07/26 08:16:26;;;;;;;3.80;3.10;;;;;;;25.46;46.99;99578.98;105923;1279;24252;-79
2022/07/26 08:18:53;;;;;;;5.40;4.10;;;;;;;25.45;47.09;99575.48;105914;1276;23753;-79
2022/07/26 08:21:35;;;;;;;6.20;3.20;;;;;;;25.43;46.96;99569.69;105786;1276;24256;-78
2022/07/26 08:24:02;;;;;;;3.40;3.10;;;;;;;25.50;47.16;99573.99;106068;1277;25326;-79
2022/07/26 08:26:28;;;;;;;5.40;3.40;;;;;;;25.58;47.33;99572.38;105841;1278;24694;-79
2022/07/26 08:28:55;;;;;;;6.70;4.20;;;;;;;25.67;47.47;99569.13;106033;1274;24291;-79
2022/07/26 08:31:29;;;;;;;6.40;3.20;;;;;;;25.72;47.12;99564.95;105734;1277;24892;-80
2022/07/26 08:33:56;;;;;;;6.40;3.40;;;;;;;25.75;46.91;99563.80;106359;1279;25255;-79
2022/07/26 08:36:23;;;;;;;3.60;3.20;;;;;;;25.82;47.22;99562.29;106031;1279;23372;-76
2022/07/26 08:38:57;;;;;;;4.00;3.00;;;;;;;25.90;47.23;99561.58;106028;1279;22619;-77
2022/07/26 08:41:24;;;;;;;4.00;3.20;;;;;;;25.90;47.07;99558.88;106073;1281;24685;-76
2022/07/26 08:43:51;;;;;;;4.70;3.30;;;;;;;25.95;47.03;99563.80;105485;1279;22553;-81
2022/07/26 08:46:23;;;;;;;4.40;3.20;;;;;;;25.95;46.65;99561.33;105745;1281;25284;-79
2022/07/26 08:48:55;;;;;;;4.40;3.30;;;;;;;25.94;46.78;99564.64;105746;1280;22778;-79
2022/07/26 08:51:24;;;;;;;5.70;3.30;;;;;;;26.08;46.83;99569.90;106492;1279;22536;-77
2022/07/26 08:53:54;;;;;;;6.00;3.40;;;;;;;26.25;46.76;99576.27;106384;1279;22550;-80
2022/07/26 08:56:31;;;;;;;3.70;3.10;;;;;;;26.38;46.70;99580.37;106080;1276;25253;-80
2022/07/26 08:58:58;;;;;;;5.20;3.40;;;;;;;26.43;46.66;99584.46;106018;1277;23064;-79
2022/07/26 09:01:25;;;;;;;4.90;3.70;;;;;;;26.46;46.18;99586.89;106110;1276;26572;-76
2022/07/26 09:03:53;;;;;;;6.30;3.20;;;;;;;26.44;46.10;99586.88;105957;1276;23015;-77
2022/07/26 09:06:22;;;;;;;6.10;3.50;;;;;;;26.40;46.27;99582.51;105701;1277;22531;-79
2022/07/26 09:09:09;;;;;;;4.70;3.10;;;;;;;26.39;46.12;99586.05;105504;1277;22555;-74
2022/07/26 09:11:36;;;;;;;6.10;3.80;;;;;;;26.38;46.32;99586.35;105642;1279;22770;-76
2022/07/26 09:14:05;;;;;;;5.80;3.30;;;;;;;26.46;46.31;99590.86;105963;1277;22714;-79
2022/07/26 09:16:32;;;;;;;3.60;3.30;;;;;;;26.58;46.16;99592.68;105853;1278;25229;-77
2022/07/26 09:19:21;;;;;;;3.80;3.40;;;;;;;26.71;46.24;99599.83;105944;1276;26477;-81
2022/07/26 09:21:48;;;;;;;4.20;3.40;;;;;;;26.83;46.06;99602.90;105743;1276;24865;-82
2022/07/26 09:24:34;;;;;;;7.70;3.70;;;;;;;26.88;46.06;99608.65;105613;1276;23016;-79
2022/07/26 09:27:04;;;;;;;13.30;4.20;;;;;;;26.90;46.09;99609.52;105827;1278;22553;-78
2022/07/26 09:29:45;;;;;;;4.50;3.90;;;;;;;26.89;45.74;99610.67;105692;1277;24378;-78
2022/07/26 09:32:21;;;;;;;4.50;3.90;;;;;;;26.91;45.40;99611.08;105491;1281;25262;-78
2022/07/26 09:34:53;;;;;;;5.20;3.80;;;;;;;26.89;44.96;99621.00;105733;1281;22550;-77
2022/07/26 09:37:35;;;;;;;4.10;3.50;;;;;;;26.82;45.08;99619.44;104797;1287;24334;-81
2022/07/26 09:40:06;;;;;;;5.90;4.00;;;;;;;26.73;45.21;99626.41;104758;1288;22595;-79
2022/07/26 09:42:33;;;;;;;3.90;3.40;;;;;;;26.64;45.63;99624.84;104747;1287;22543;-78
2022/07/26 09:45:01;;;;;;;8.80;3.90;;;;;;;26.60;46.05;99625.34;104478;1287;23407;-79
2022/07/26 09:47:36;;;;;;;5.80;4.00;;;;;;;26.64;45.99;99626.45;104679;1287;24245;-79
2022/07/26 09:50:10;;;;;;;6.80;3.90;;;;;;;26.69;46.00;99629.42;104847;1285;25300;-80
2022/07/26 09:52:37;;;;;;;9.30;3.80;;;;;;;26.74;46.02;99630.45;105095;1285;25358;-77
2022/07/26 09:55:07;;;;;;;6.70;4.10;;;;;;;26.77;46.18;99626.21;105192;1281;22550;-79
2022/07/26 09:57:36;;;;;;;6.30;4.10;;;;;;;26.79;46.31;99628.21;106293;1277;23081;-77
2022/07/26 10:00:05;;;;;;;5.50;3.80;;;;;;;26.87;46.21;99629.25;105859;1276;22703;-77
2022/07/26 10:02:33;;;;;;;8.60;4.40;;;;;;;26.87;46.11;99627.83;105564;1277;25844;-77
2022/07/26 10:05:01;;;;;;;4.50;4.00;;;;;;;26.91;46.14;99630.89;105606;1278;24225;-78
2022/07/26 10:07:28;;;;;;;6.00;4.20;;;;;;;26.98;45.87;99631.98;105281;1282;22562;-77
2022/07/26 10:10:06;;;;;;;10.10;4.10;;;;;;;27.07;46.24;99635.71;105350;1282;22765;-81
2022/07/26 10:12:34;;;;;;;7.90;4.30;;;;;;;27.17;46.41;99639.08;105322;1282;24296;-77
2022/07/26 10:15:02;;;;;;;11.20;4.50;;;;;;;27.35;46.69;99635.16;105174;1284;22547;-75
2022/07/26 10:17:28;;;;;;;13.10;4.70;;;;;;;27.45;46.40;99632.02;105311;1282;24377;-80
2022/07/26 10:20:06;;;;;;;8.60;4.50;;;;;;;27.47;46.58;99629.33;105385;1282;25442;-79
2022/07/26 10:22:45;;;;;;;13.90;4.30;;;;;;;27.61;46.56;99634.90;105334;1282;22572;-80
2022/07/26 10:25:18;;;;;;;8.90;4.70;;;;;;;27.65;45.99;99636.59;105310;1277;22557;-77
2022/07/26 10:27:46;;;;;;;10.20;4.30;;;;;;;27.49;46.49;99639.99;105911;1277;22551;-81
2022/07/26 10:30:20;;;;;;;9.30;4.40;;;;;;;27.39;46.72;99649.02;105834;1276;22767;-77
2022/07/26 10:32:50;;;;;;;5.60;4.40;;;;;;;27.28;47.01;99652.38;105976;1275;22554;-78
2022/07/26 10:35:45;;;;;;;8.20;4.20;;;;;;;27.25;47.00;99652.50;105954;1275;22544;-80
2022/07/26 10:38:24;;;;;;;9.90;4.50;;;;;;;27.24;46.93;99661.81;105728;1278;22531;-81
2022/07/26 10:41:05;;;;;;;4.60;4.20;;;;;;;27.18;47.01;99664.84;105642;1281;22627;-78
2022/07/26 10:43:33;;;;;;;5.10;4.40;;;;;;;27.20;46.90;99666.63;105852;1279;22705;-75
2022/07/26 10:46:14;;;;;;;18.00;5.50;;;;;;;27.23;46.96;99662.07;105790;1278;25239;-79
2022/07/26 10:49:03;;;;;;;5.10;4.20;;;;;;;27.18;46.68;99667.02;105974;1274;25314;-81
2022/07/26 10:51:39;;;;;;;4.90;3.90;;;;;;;27.14;46.52;99670.48;106072;1274;22563;-77
2022/07/26 10:54:07;;;;;;;;;;;;;;;27.11;46.15;99658.67;106055;1274;23773;-76
2022/07/26 10:56:35;;;;;;;4.10;3.40;;;;;;;27.07;45.92;99659.65;105997;1277;25121;-79
2022/07/26 10:59:04;;;;;;;6.10;4.10;;;;;;;27.04;46.09;99659.42;106413;1274;24320;-76
2022/07/26 11:01:37;;;;;;;138.40;36.10;;;;;;;26.99;46.06;99659.85;106045;1278;25257;-80
2022/07/26 11:04:21;;;;;;;11.50;6.40;;;;;;;27.06;46.33;99666.08;106053;1278;23851;-74
2022/07/26 11:06:48;;;;;;;9.60;5.20;;;;;;;27.20;45.87;99664.81;105774;1279;23089;-78
2022/07/26 11:09:17;;;;;;;7.50;4.80;;;;;;;27.26;45.92;99667.78;105846;1274;25368;-77
2022/07/26 11:11:47;;;;;;;10.50;4.60;;;;;;;27.22;45.49;99672.27;106044;1278;25254;-79
2022/07/26 11:14:16;;;;;;;4.60;3.90;;;;;;;27.04;44.91;99681.86;105880;1278;24335;-77
2022/07/26 11:16:49;;;;;;;5.70;4.00;;;;;;;26.80;45.29;99688.05;106028;1276;25232;-79
2022/07/26 11:19:23;;;;;;;5.00;3.70;;;;;;;26.66;45.46;99699.20;106180;1274;22562;-79
2022/07/26 11:21:59;;;;;;;7.90;3.80;;;;;;;26.56;45.55;99703.49;106196;1277;22541;-80
2022/07/26 11:24:27;;;;;;;4.50;4.00;;;;;;;26.28;45.70;99712.38;106302;1274;25328;-79
2022/07/26 11:27:01;;;;;;;5.20;3.60;;;;;;;26.08;45.84;99712.27;106426;1278;25268;-78
2022/07/26 11:29:31;;;;;;;8.10;4.20;;;;;;;26.02;46.23;99713.65;106121;1274;22579;-78
2022/07/26 11:32:18;;;;;;;5.40;4.10;;;;;;;26.02;46.52;99720.92;106143;1274;25296;-79
2022/07/26 11:34:58;;;;;;;7.10;4.10;;;;;;;25.88;46.58;99723.31;106217;1274;24299;-78
2022/07/26 11:37:25;;;;;;;9.60;4.20;;;;;;;25.68;46.92;99724.61;106140;1274;24862;-79
2022/07/26 11:39:51;;;;;;;6.40;3.80;;;;;;;25.54;47.24;99732.76;105941;1275;24262;-80